createdAt,value
2018-11-26T00:01:06.160Z,99.9
2018-11-26T00:02:15.437Z,99.9
2018-11-26T00:03:24.618Z,99.9
2018-11-26T00:04:33.831Z,99.9
2018-11-26T00:05:43.093Z,99.9
2018-11-26T00:06:52.325Z,99.9
2018-11-26T00:08:01.524Z,99.9
2018-11-26T00:09:10.820Z,99.9
2018-11-26T00:10:19.993Z,99.9
2018-11-26T00:11:29.211Z,99.9
2018-11-26T00:12:38.436Z,99.9
2018-11-26T00:13:47.662Z,99.9
2018-11-26T00:14:56.920Z,99.9
2018-11-26T00:16:06.192Z,99.9
2018-11-26T00:17:15.325Z,99.9
2018-11-26T00:18:24.627Z,99.9
2018-11-26T00:19:33.809Z,99.9
2018-11-26T00:20:43.005Z,99.9
2018-11-26T00:21:52.233Z,99.9
2018-11-26T00:23:01.529Z,99.9
2018-11-26T00:24:10.652Z,99.9
2018-11-26T00:25:19.887Z,99.9
2018-11-26T00:26:29.118Z,99.9
2018-11-26T00:27:38.315Z,99.9
2018-11-26T00:28:47.513Z,99.9
2018-11-26T00:29:56.740Z,99.9
2018-11-26T00:31:05.947Z,99.9
2018-11-26T00:32:15.170Z,99.9
2018-11-26T00:33:24.387Z,99.9
2018-11-26T00:34:33.618Z,99.9
2018-11-26T00:35:42.834Z,99.9
2018-11-26T00:36:52.027Z,99.9
2018-11-26T00:38:01.331Z,99.9
2018-11-26T00:39:10.435Z,99.9
2018-11-26T00:40:19.667Z,99.9
2018-11-26T00:41:28.892Z,99.9
2018-11-26T00:42:38.098Z,99.9
2018-11-26T00:43:47.319Z,99.9
2018-11-26T00:44:56.523Z,99.9
2018-11-26T00:46:05.723Z,99.9
2018-11-26T00:47:14.928Z,99.9
2018-11-26T00:48:24.224Z,99.9
2018-11-26T00:49:33.358Z,99.9
2018-11-26T00:50:42.554Z,99.9
2018-11-26T00:51:51.762Z,99.9
2018-11-26T00:53:00.968Z,99.9
2018-11-26T00:54:10.197Z,99.9
2018-11-26T00:55:19.414Z,99.9
2018-11-26T00:56:28.603Z,99.9
2018-11-26T00:57:37.801Z,99.9
2018-11-26T00:58:47.032Z,99.9
2018-11-26T00:59:56.373Z,99.9
2018-11-26T01:01:05.419Z,99.9
2018-11-26T01:02:14.675Z,99.9
2018-11-26T01:03:23.822Z,99.9
2018-11-26T01:04:33.041Z,99.9
2018-11-26T01:05:42.348Z,99.9
2018-11-26T01:06:51.492Z,99.9
2018-11-26T01:08:00.643Z,99.9
2018-11-26T01:09:09.853Z,99.9
2018-11-26T01:10:19.105Z,99.9
2018-11-26T01:11:28.254Z,99.9
2018-11-26T01:12:37.483Z,99.9
2018-11-26T01:13:46.703Z,99.9
2018-11-26T01:14:55.908Z,99.9
2018-11-26T01:16:05.070Z,99.9
2018-11-26T01:17:14.244Z,99.9
2018-11-26T01:18:23.455Z,99.9
2018-11-26T01:19:32.644Z,99.9
2018-11-26T01:20:41.872Z,99.9
2018-11-26T01:21:51.082Z,99.9
2018-11-26T01:23:00.278Z,99.9
2018-11-26T01:24:09.456Z,99.9
2018-11-26T01:25:18.668Z,99.9
2018-11-26T01:26:27.848Z,99.9
2018-11-26T01:27:37.068Z,99.9
2018-11-26T01:28:46.264Z,99.9
2018-11-26T01:29:55.469Z,99.9
2018-11-26T01:31:04.669Z,99.9
2018-11-26T01:32:13.853Z,99.9
2018-11-26T01:33:23.068Z,99.9
2018-11-26T01:34:32.398Z,99.9
2018-11-26T01:35:41.513Z,99.9
2018-11-26T01:36:50.663Z,99.9
2018-11-26T01:37:59.898Z,99.9
2018-11-26T01:39:09.048Z,99.9
2018-11-26T01:40:18.258Z,99.9
2018-11-26T01:41:27.499Z,99.9
2018-11-26T01:42:36.681Z,99.9
2018-11-26T01:43:45.875Z,99.9
2018-11-26T01:44:55.028Z,99.9
2018-11-26T01:46:04.246Z,99.9
2018-11-26T01:47:13.443Z,99.9
2018-11-26T01:48:22.639Z,99.9
2018-11-26T01:49:31.826Z,99.9
2018-11-26T01:50:41.086Z,99.9
2018-11-26T01:51:50.226Z,99.9
2018-11-26T01:52:59.419Z,99.9
2018-11-26T01:54:08.610Z,99.9
2018-11-26T01:55:17.790Z,99.9
2018-11-26T01:56:27.060Z,99.9
2018-11-26T01:57:36.226Z,99.9
2018-11-26T01:58:45.402Z,99.9
2018-11-26T01:59:54.592Z,99.9
2018-11-26T02:01:03.789Z,99.9
2018-11-26T02:02:12.975Z,99.9
2018-11-26T02:03:22.178Z,99.9
2018-11-26T02:04:31.411Z,99.9
2018-11-26T02:05:40.553Z,99.9
2018-11-26T02:06:49.746Z,99.9
2018-11-26T02:07:58.979Z,99.9
2018-11-26T02:09:08.192Z,99.9
2018-11-26T02:10:17.487Z,99.9
2018-11-26T02:11:26.636Z,99.9
2018-11-26T02:12:35.876Z,99.9
2018-11-26T02:13:44.938Z,99.9
2018-11-26T02:14:54.105Z,99.9
2018-11-26T02:16:03.261Z,99.9
2018-11-26T02:17:12.461Z,99.9
2018-11-26T02:18:21.626Z,99.9
2018-11-26T02:19:30.869Z,99.9
2018-11-26T02:20:40.068Z,99.9
2018-11-26T02:21:49.208Z,99.9
2018-11-26T02:22:58.381Z,99.9
2018-11-26T02:24:07.586Z,99.9
2018-11-26T02:25:16.784Z,99.9
2018-11-26T02:26:25.963Z,99.9
2018-11-26T02:27:35.131Z,99.9
2018-11-26T02:28:44.320Z,99.9
2018-11-26T02:29:53.507Z,99.9
2018-11-26T02:31:02.747Z,99.9
2018-11-26T02:32:12.198Z,99.9
2018-11-26T02:33:21.068Z,99.9
2018-11-26T02:34:30.255Z,99.9
2018-11-26T02:35:40.017Z,99.9
2018-11-26T02:36:48.707Z,99.9
2018-11-26T02:37:57.854Z,99.9
2018-11-26T02:39:07.025Z,99.9
2018-11-26T02:40:16.207Z,99.9
2018-11-26T02:41:25.399Z,99.9
2018-11-26T02:42:34.560Z,99.9
2018-11-26T02:43:43.749Z,99.9
2018-11-26T02:44:52.941Z,99.9
2018-11-26T02:46:02.129Z,99.9
2018-11-26T02:47:11.318Z,99.9
2018-11-26T02:48:20.552Z,99.9
2018-11-26T02:49:29.711Z,99.9
2018-11-26T02:50:38.886Z,99.9
2018-11-26T02:51:48.080Z,99.9
2018-11-26T02:52:57.292Z,99.9
2018-11-26T02:54:06.508Z,99.9
2018-11-26T02:55:15.711Z,99.9
2018-11-26T02:56:24.858Z,99.9
2018-11-26T02:57:34.043Z,99.9
2018-11-26T02:58:43.216Z,99.9
2018-11-26T02:59:52.423Z,99.9
2018-11-26T03:01:01.590Z,99.9
2018-11-26T03:02:10.837Z,99.9
2018-11-26T03:03:19.992Z,99.9
2018-11-26T03:04:29.225Z,99.9
2018-11-26T03:05:38.397Z,99.9
2018-11-26T03:06:47.578Z,99.9
2018-11-26T03:07:56.757Z,99.9
2018-11-26T03:09:05.955Z,99.9
2018-11-26T03:10:15.159Z,99.9
2018-11-26T03:11:24.331Z,99.9
2018-11-26T03:12:33.525Z,99.9
2018-11-26T03:13:42.730Z,99.9
2018-11-26T03:14:51.917Z,99.9
2018-11-26T03:16:01.174Z,99.9
2018-11-26T03:17:10.294Z,99.9
2018-11-26T03:18:19.494Z,99.9
2018-11-26T03:19:28.668Z,99.9
2018-11-26T03:20:37.892Z,99.9
2018-11-26T03:21:47.042Z,99.9
2018-11-26T03:22:56.266Z,99.9
2018-11-26T03:24:05.437Z,99.9
2018-11-26T03:25:14.636Z,99.9
2018-11-26T03:26:23.833Z,99.9
2018-11-26T03:27:33.108Z,99.9
2018-11-26T03:28:42.224Z,99.9
2018-11-26T03:29:51.410Z,99.9
2018-11-26T03:31:00.665Z,99.9
2018-11-26T03:32:09.799Z,99.9
2018-11-26T03:33:18.991Z,99.9
2018-11-26T03:34:28.200Z,99.9
2018-11-26T03:35:37.388Z,99.9
2018-11-26T03:36:46.590Z,99.9
2018-11-26T03:37:55.837Z,99.9
2018-11-26T03:39:04.955Z,99.9
2018-11-26T03:40:14.139Z,99.9
2018-11-26T03:41:23.337Z,99.9
2018-11-26T03:42:32.521Z,99.9
2018-11-26T03:43:41.742Z,99.9
2018-11-26T03:44:50.907Z,99.9
2018-11-26T03:46:00.196Z,99.9
2018-11-26T03:47:09.280Z,99.9
2018-11-26T03:48:18.472Z,99.9
2018-11-26T03:49:27.757Z,99.9
2018-11-26T03:50:36.866Z,99.9
2018-11-26T03:51:46.238Z,99.9
2018-11-26T03:52:55.356Z,99.9
2018-11-26T03:54:04.442Z,99.9
2018-11-26T03:55:13.637Z,99.9
2018-11-26T03:56:22.840Z,99.9
2018-11-26T03:57:32.002Z,99.9
2018-11-26T03:58:41.200Z,99.9
2018-11-26T03:59:50.398Z,99.9
2018-11-26T04:01:00.263Z,99.9
2018-11-26T04:02:09.164Z,99.9
2018-11-26T04:03:18.703Z,99.9
2018-11-26T04:04:27.165Z,99.9
2018-11-26T04:05:36.342Z,99.9
2018-11-26T04:06:45.537Z,99.9
2018-11-26T04:07:54.750Z,99.9
2018-11-26T04:09:04.062Z,99.9
2018-11-26T04:10:13.149Z,99.9
2018-11-26T04:11:22.403Z,99.9
2018-11-26T04:12:31.516Z,99.9
2018-11-26T04:13:40.721Z,99.9
2018-11-26T04:14:49.938Z,99.9
2018-11-26T04:15:59.103Z,99.9
2018-11-26T04:17:08.265Z,99.9
2018-11-26T04:18:17.446Z,99.9
2018-11-26T04:19:26.640Z,99.9
2018-11-26T04:20:35.825Z,99.9
2018-11-26T04:21:45.020Z,99.9
2018-11-26T04:22:54.207Z,99.9
2018-11-26T04:24:03.390Z,99.9
2018-11-26T04:25:12.655Z,99.9
2018-11-26T04:26:21.812Z,99.9
2018-11-26T04:27:30.960Z,99.9
2018-11-26T04:28:40.142Z,99.9
2018-11-26T04:29:49.349Z,99.9
2018-11-26T04:30:58.556Z,99.9
2018-11-26T04:32:07.744Z,99.9
2018-11-26T04:33:16.922Z,99.9
2018-11-26T04:34:26.119Z,99.9
2018-11-26T04:35:35.315Z,99.9
2018-11-26T04:36:44.673Z,99.9
2018-11-26T04:37:53.769Z,99.9
2018-11-26T04:39:02.896Z,99.9
2018-11-26T04:40:12.103Z,99.9
2018-11-26T04:41:21.285Z,99.9
2018-11-26T04:42:30.481Z,99.9
2018-11-26T04:43:39.661Z,99.9
2018-11-26T04:44:48.885Z,99.9
2018-11-26T04:45:58.068Z,99.9
2018-11-26T04:47:07.326Z,99.9
2018-11-26T04:48:16.511Z,99.9
2018-11-26T04:49:25.669Z,99.9
2018-11-26T04:50:34.862Z,99.9
2018-11-26T04:51:44.063Z,99.9
2018-11-26T04:52:53.252Z,99.9
2018-11-26T04:54:02.448Z,99.9
2018-11-26T04:55:11.680Z,99.9
2018-11-26T04:56:20.850Z,99.9
2018-11-26T04:57:30.057Z,99.9
2018-11-26T04:58:39.229Z,99.9
2018-11-26T04:59:48.446Z,99.9
2018-11-26T05:00:57.650Z,99.9
2018-11-26T05:02:06.861Z,99.9
2018-11-26T05:03:16.049Z,99.9
2018-11-26T05:04:25.242Z,99.9
2018-11-26T05:05:34.417Z,99.9
2018-11-26T05:06:43.706Z,99.9
2018-11-26T05:07:52.825Z,99.9
2018-11-26T05:09:02.012Z,99.9
2018-11-26T05:10:11.200Z,99.9
2018-11-26T05:11:21.263Z,99.9
2018-11-26T05:12:29.611Z,99.9
2018-11-26T05:13:38.839Z,99.9
2018-11-26T05:14:48.015Z,99.9
2018-11-26T05:15:57.195Z,99.9
2018-11-26T05:17:06.404Z,99.9
2018-11-26T05:18:15.590Z,99.9
2018-11-26T05:19:24.793Z,99.9
2018-11-26T05:20:33.977Z,99.9
2018-11-26T05:21:43.210Z,99.9
2018-11-26T05:22:52.380Z,99.9
2018-11-26T05:24:01.584Z,99.9
2018-11-26T05:25:10.831Z,99.9
2018-11-26T05:26:20.023Z,99.9
2018-11-26T05:27:29.220Z,99.9
2018-11-26T05:28:38.488Z,99.9
2018-11-26T05:29:47.738Z,99.9
2018-11-26T05:30:57.286Z,99.9
2018-11-26T05:32:06.264Z,99.9
2018-11-26T05:33:15.284Z,99.9
2018-11-26T05:34:24.785Z,99.9
2018-11-26T05:35:33.558Z,99.9
2018-11-26T05:36:42.841Z,99.9
2018-11-26T05:37:51.997Z,99.9
2018-11-26T05:39:01.126Z,99.9
2018-11-26T05:40:10.348Z,99.9
2018-11-26T05:41:19.543Z,99.9
2018-11-26T05:42:29.028Z,99.9
2018-11-26T05:43:37.963Z,99.9
2018-11-26T05:44:47.119Z,99.9
2018-11-26T05:45:56.349Z,99.9
2018-11-26T05:47:05.518Z,99.9
2018-11-26T05:48:14.740Z,99.9
2018-11-26T05:49:23.925Z,99.9
2018-11-26T05:50:33.187Z,99.9
2018-11-26T05:51:42.307Z,99.9
2018-11-26T05:52:51.511Z,99.9
2018-11-26T05:54:00.702Z,99.9
2018-11-26T05:55:09.928Z,99.9
2018-11-26T05:56:19.090Z,99.9
2018-11-26T05:57:28.289Z,99.9
2018-11-26T05:58:37.479Z,99.9
2018-11-26T05:59:46.685Z,99.9
2018-11-26T06:00:55.940Z,99.9
2018-11-26T06:02:05.071Z,99.9
2018-11-26T06:03:14.310Z,99.9
2018-11-26T06:04:23.476Z,99.9
2018-11-26T06:05:32.674Z,99.9
2018-11-26T06:06:41.921Z,99.9
2018-11-26T06:07:51.064Z,99.9
2018-11-26T06:09:00.271Z,99.9
2018-11-26T06:10:09.506Z,99.9
2018-11-26T06:11:18.728Z,99.9
2018-11-26T06:12:27.837Z,99.9
2018-11-26T06:13:37.062Z,99.9
2018-11-26T06:14:46.289Z,99.9
2018-11-26T06:15:55.447Z,99.9
2018-11-26T06:17:04.755Z,99.9
2018-11-26T06:18:13.851Z,99.9
2018-11-26T06:19:23.053Z,99.9
2018-11-26T06:20:32.323Z,99.9
2018-11-26T06:21:41.457Z,99.9
2018-11-26T06:22:50.666Z,99.9
2018-11-26T06:23:59.855Z,99.9
2018-11-26T06:25:09.052Z,99.9
2018-11-26T06:26:18.312Z,99.9
2018-11-26T06:27:27.466Z,99.9
2018-11-26T06:28:36.668Z,99.9
2018-11-26T06:29:45.893Z,99.9
2018-11-26T06:30:55.060Z,99.9
2018-11-26T06:32:04.242Z,99.9
2018-11-26T06:33:13.446Z,99.9
2018-11-26T06:34:22.642Z,99.9
2018-11-26T06:35:31.863Z,99.9
2018-11-26T06:36:41.058Z,99.9
2018-11-26T06:37:50.261Z,99.9
2018-11-26T06:38:59.432Z,99.9
2018-11-26T06:40:09.048Z,99.9
2018-11-26T06:41:17.860Z,99.9
2018-11-26T06:42:27.088Z,99.9
2018-11-26T06:43:36.247Z,99.9
2018-11-26T06:44:45.462Z,99.9
2018-11-26T06:45:54.649Z,99.9
2018-11-26T06:47:03.843Z,99.9
2018-11-26T06:48:13.120Z,99.9
2018-11-26T06:49:22.355Z,99.9
2018-11-26T06:50:31.568Z,99.9
2018-11-26T06:51:40.813Z,99.9
2018-11-26T06:52:49.874Z,99.9
2018-11-26T06:53:59.052Z,99.9
2018-11-26T06:55:08.252Z,99.9
2018-11-26T06:56:17.458Z,99.9
2018-11-26T06:57:26.682Z,99.9
2018-11-26T06:58:35.867Z,99.9
2018-11-26T06:59:45.078Z,99.9
2018-11-26T07:00:54.272Z,99.9
2018-11-26T07:02:03.474Z,99.9
2018-11-26T07:03:12.681Z,99.9
2018-11-26T07:04:22.035Z,99.9
2018-11-26T07:05:31.674Z,99.9
2018-11-26T07:06:40.381Z,99.9
2018-11-26T07:07:49.569Z,99.9
2018-11-26T07:08:58.706Z,99.9
2018-11-26T07:10:07.924Z,99.9
2018-11-26T07:11:17.127Z,99.9
2018-11-26T07:12:26.322Z,99.9
2018-11-26T07:13:35.520Z,99.9
2018-11-26T07:14:44.725Z,99.9
2018-11-26T07:15:53.928Z,99.9
2018-11-26T07:17:03.163Z,99.9
2018-11-26T07:18:12.361Z,99.9
2018-11-26T07:19:21.548Z,99.9
2018-11-26T07:20:30.765Z,99.9
2018-11-26T07:21:39.953Z,99.9
2018-11-26T07:22:49.169Z,99.9
2018-11-26T07:23:58.387Z,99.9
2018-11-26T07:25:07.587Z,99.9
2018-11-26T07:26:16.783Z,99.9
2018-11-26T07:27:25.988Z,99.9
2018-11-26T07:28:35.284Z,99.9
2018-11-26T07:29:44.402Z,99.9
2018-11-26T07:30:53.634Z,99.9
2018-11-26T07:32:02.819Z,99.9
2018-11-26T07:33:12.074Z,99.9
2018-11-26T07:34:21.381Z,99.9
2018-11-26T07:35:30.499Z,99.9
2018-11-26T07:36:39.694Z,99.9
2018-11-26T07:37:49.016Z,99.9
2018-11-26T07:38:58.079Z,99.9
2018-11-26T07:40:07.301Z,99.9
2018-11-26T07:41:16.512Z,99.9
2018-11-26T07:42:25.784Z,99.9
2018-11-26T07:43:34.950Z,99.9
2018-11-26T07:44:44.152Z,99.9
2018-11-26T07:45:53.347Z,99.9
2018-11-26T07:47:02.551Z,99.9
2018-11-26T07:48:11.787Z,99.9
2018-11-26T07:49:20.976Z,99.9
2018-11-26T07:50:30.207Z,99.9
2018-11-26T07:51:39.454Z,99.9
2018-11-26T07:52:48.625Z,99.9
2018-11-26T07:53:57.819Z,99.9
2018-11-26T07:55:07.050Z,99.9
2018-11-26T07:56:16.251Z,99.9
2018-11-26T07:57:25.463Z,99.9
2018-11-26T07:58:34.673Z,99.9
2018-11-26T07:59:43.890Z,99.9
2018-11-26T08:00:53.123Z,99.9
2018-11-26T08:02:02.327Z,99.9
2018-11-26T08:03:11.530Z,99.9
2018-11-26T08:04:20.753Z,99.9
2018-11-26T08:05:29.946Z,99.9
2018-11-26T08:06:39.169Z,99.9
2018-11-26T08:07:48.367Z,99.9
2018-11-26T08:08:57.602Z,99.9
2018-11-26T08:10:06.804Z,99.9
2018-11-26T08:11:16.126Z,99.9
2018-11-26T08:12:25.240Z,99.9
2018-11-26T08:13:34.472Z,99.9
2018-11-26T08:14:43.646Z,99.9
2018-11-26T08:15:52.873Z,99.9
2018-11-26T08:17:02.119Z,99.9
2018-11-26T08:18:11.299Z,99.9
2018-11-26T08:19:20.501Z,99.9
2018-11-26T08:20:29.740Z,99.9
2018-11-26T08:21:38.954Z,99.9
2018-11-26T08:22:48.195Z,99.9
2018-11-26T08:23:57.377Z,99.9
2018-11-26T08:25:06.607Z,99.9
2018-11-26T08:26:15.855Z,99.9
2018-11-26T08:27:25.030Z,99.9
2018-11-26T08:28:34.256Z,99.9
2018-11-26T08:29:43.487Z,99.9
2018-11-26T08:30:52.809Z,99.9
2018-11-26T08:32:01.918Z,99.9
2018-11-26T08:33:11.144Z,99.9
2018-11-26T08:34:20.337Z,99.9
2018-11-26T08:35:29.572Z,99.9
2018-11-26T08:36:38.808Z,99.9
2018-11-26T08:37:48.006Z,99.9
2018-11-26T08:38:57.295Z,99.9
2018-11-26T08:40:06.462Z,99.9
2018-11-26T08:41:15.686Z,99.9
2018-11-26T08:42:24.900Z,99.9
2018-11-26T08:43:34.130Z,99.9
2018-11-26T08:44:43.340Z,99.9
2018-11-26T08:45:52.598Z,99.9
2018-11-26T08:47:01.783Z,99.9
2018-11-26T08:48:11.017Z,99.9
2018-11-26T08:49:20.229Z,99.9
2018-11-26T08:50:29.643Z,99.9
2018-11-26T08:51:38.659Z,99.9
2018-11-26T08:52:47.893Z,99.9
2018-11-26T08:53:57.111Z,99.9
2018-11-26T08:55:06.409Z,99.9
2018-11-26T08:56:16.153Z,99.9
2018-11-26T08:57:24.771Z,99.9
2018-11-26T08:58:34.005Z,99.9
2018-11-26T08:59:43.229Z,99.9
2018-11-26T09:00:52.497Z,99.9
2018-11-26T09:02:01.736Z,99.9
2018-11-26T09:03:10.970Z,99.9
2018-11-26T09:04:20.120Z,99.9
2018-11-26T09:05:29.334Z,99.9
2018-11-26T09:06:38.586Z,99.9
2018-11-26T09:07:47.864Z,99.9
2018-11-26T09:08:57.022Z,99.9
2018-11-26T09:10:06.227Z,99.9
2018-11-26T09:11:15.476Z,99.9
2018-11-26T09:12:24.680Z,99.9
2018-11-26T09:13:33.983Z,99.9
2018-11-26T09:14:43.140Z,99.9
2018-11-26T09:15:52.393Z,99.9
2018-11-26T09:17:01.597Z,99.9
2018-11-26T09:18:10.848Z,99.9
2018-11-26T09:19:20.029Z,99.9
2018-11-26T09:20:29.270Z,99.9
2018-11-26T09:21:38.473Z,99.9
2018-11-26T09:22:47.699Z,99.9
2018-11-26T09:23:56.959Z,99.9
2018-11-26T09:25:06.181Z,99.9
2018-11-26T09:26:15.395Z,99.9
2018-11-26T09:27:24.658Z,99.9
2018-11-26T09:28:33.841Z,99.9
2018-11-26T09:29:43.075Z,99.9
2018-11-26T09:30:52.305Z,99.9
2018-11-26T09:32:01.542Z,99.9
2018-11-26T09:33:10.820Z,99.9
2018-11-26T09:34:20.028Z,99.9
2018-11-26T09:35:29.236Z,99.9
2018-11-26T09:36:38.486Z,99.9
2018-11-26T09:37:47.692Z,99.9
2018-11-26T09:38:57.046Z,99.9
2018-11-26T09:40:06.153Z,99.9
2018-11-26T09:41:15.391Z,99.9
2018-11-26T09:42:24.610Z,99.9
2018-11-26T09:43:33.890Z,99.9
2018-11-26T09:44:43.085Z,99.9
2018-11-26T09:45:52.316Z,99.9
2018-11-26T09:47:01.527Z,99.9
2018-11-26T09:48:10.803Z,99.9
2018-11-26T09:49:20.011Z,99.9
2018-11-26T09:50:29.238Z,99.9
2018-11-26T09:51:42.453Z,99.9
2018-11-26T09:52:47.718Z,99.9
2018-11-26T09:53:57.033Z,99.9
2018-11-26T09:55:06.182Z,99.9
2018-11-26T09:56:15.590Z,99.9
2018-11-26T09:57:24.631Z,99.9
2018-11-26T09:58:33.945Z,99.9
2018-11-26T09:59:43.175Z,99.9
2018-11-26T10:00:52.342Z,99.9
2018-11-26T10:02:01.599Z,99.9
2018-11-26T10:03:10.843Z,99.9
2018-11-26T10:04:20.051Z,99.9
2018-11-26T10:05:29.265Z,99.9
2018-11-26T10:06:38.548Z,99.9
2018-11-26T10:07:47.735Z,99.9
2018-11-26T10:08:56.976Z,99.9
2018-11-26T10:10:06.224Z,99.9
2018-11-26T10:11:15.447Z,99.9
2018-11-26T10:12:24.671Z,99.9
2018-11-26T10:13:33.949Z,99.9
2018-11-26T10:14:43.172Z,99.9
2018-11-26T10:15:52.387Z,99.9
2018-11-26T10:17:01.614Z,99.9
2018-11-26T10:18:10.907Z,99.9
2018-11-26T10:19:20.135Z,99.9
2018-11-26T10:20:29.356Z,99.9
2018-11-26T10:21:38.607Z,99.9
2018-11-26T10:22:47.845Z,99.9
2018-11-26T10:23:57.241Z,99.9
2018-11-26T10:25:06.329Z,99.9
2018-11-26T10:26:15.577Z,99.9
2018-11-26T10:27:24.822Z,99.9
2018-11-26T10:28:34.080Z,99.9
2018-11-26T10:29:43.337Z,99.9
2018-11-26T10:30:52.555Z,99.9
2018-11-26T10:32:01.879Z,99.9
2018-11-26T10:33:15.184Z,99.9
2018-11-26T10:34:20.285Z,99.9
2018-11-26T10:35:29.543Z,99.9
2018-11-26T10:36:38.791Z,99.9
2018-11-26T10:37:48.025Z,99.9
2018-11-26T10:38:57.281Z,99.9
2018-11-26T10:40:06.543Z,99.9
2018-11-26T10:41:15.804Z,99.9
2018-11-26T10:42:25.038Z,99.9
2018-11-26T10:43:34.258Z,99.9
2018-11-26T10:44:43.504Z,99.9
2018-11-26T10:45:52.826Z,99.9
2018-11-26T10:47:02.016Z,99.9
2018-11-26T10:48:11.256Z,99.9
2018-11-26T10:49:20.525Z,99.9
2018-11-26T10:50:29.751Z,99.9
2018-11-26T10:51:39.054Z,99.9
2018-11-26T10:52:48.221Z,99.9
2018-11-26T10:53:57.493Z,99.9
2018-11-26T10:55:06.715Z,99.9
2018-11-26T10:56:15.969Z,99.9
2018-11-26T10:57:25.243Z,99.9
2018-11-26T10:58:34.455Z,99.9
2018-11-26T10:59:43.724Z,99.9
2018-11-26T11:00:52.967Z,99.9
2018-11-26T11:02:02.201Z,99.9
2018-11-26T11:03:11.453Z,99.9
2018-11-26T11:04:20.703Z,99.9
2018-11-26T11:05:29.946Z,99.9
2018-11-26T11:06:39.178Z,99.9
2018-11-26T11:07:48.413Z,99.9
2018-11-26T11:08:57.663Z,99.9
2018-11-26T11:10:06.921Z,99.9
2018-11-26T11:11:23.062Z,99.9
2018-11-26T11:12:25.422Z,99.9
2018-11-26T11:13:34.646Z,99.9
2018-11-26T11:14:43.905Z,99.9
2018-11-26T11:15:53.163Z,99.9
2018-11-26T11:17:02.395Z,99.9
2018-11-26T11:18:11.646Z,99.9
2018-11-26T11:19:20.933Z,99.9
2018-11-26T11:20:30.142Z,99.9
2018-11-26T11:21:39.760Z,99.9
2018-11-26T11:22:48.646Z,99.9
2018-11-26T11:23:57.913Z,99.9
2018-11-26T11:25:07.127Z,99.9
2018-11-26T11:26:16.399Z,99.9
2018-11-26T11:27:25.641Z,99.9
2018-11-26T11:28:34.882Z,99.9
2018-11-26T11:29:44.142Z,99.9
2018-11-26T11:30:53.435Z,99.9
2018-11-26T11:32:02.637Z,99.9
2018-11-26T11:34:21.144Z,99.9
2018-11-26T11:35:30.370Z,99.9
2018-11-26T11:36:39.773Z,99.9
2018-11-26T11:37:48.866Z,99.9
2018-11-26T11:38:58.125Z,99.9
2018-11-26T11:40:07.377Z,99.9
2018-11-26T11:41:16.633Z,99.9
2018-11-26T11:42:25.914Z,99.9
2018-11-26T11:43:35.125Z,99.9
2018-11-26T11:44:44.368Z,99.9
2018-11-26T11:45:53.655Z,99.9
2018-11-26T11:47:02.892Z,99.9
2018-11-26T11:48:12.114Z,99.9
2018-11-26T11:49:21.362Z,99.9
2018-11-26T11:50:30.629Z,99.9
2018-11-26T11:51:39.872Z,99.9
2018-11-26T11:52:49.181Z,99.9
2018-11-26T11:53:58.389Z,99.9
2018-11-26T11:55:07.611Z,99.9
2018-11-26T11:56:16.851Z,99.9
2018-11-26T11:57:26.095Z,99.9
2018-11-26T11:58:35.357Z,99.9
2018-11-26T11:59:44.635Z,99.9
2018-11-26T12:02:03.102Z,99.9
2018-11-26T12:03:12.380Z,99.9
2018-11-26T12:04:21.600Z,99.9
2018-11-26T12:05:30.855Z,99.9
2018-11-26T12:06:40.151Z,99.9
2018-11-26T12:07:49.363Z,99.9
2018-11-26T12:08:58.606Z,99.9
2018-11-26T12:10:07.856Z,99.9
2018-11-26T12:11:17.120Z,99.9
2018-11-26T12:12:26.370Z,99.9
2018-11-26T12:13:35.610Z,99.9
2018-11-26T12:14:44.869Z,99.9
2018-11-26T12:15:54.128Z,99.9
2018-11-26T12:17:03.420Z,99.9
2018-11-26T12:18:12.635Z,99.9
2018-11-26T12:19:21.863Z,99.8
2018-11-26T12:20:31.146Z,98
2018-11-26T12:21:40.395Z,97.3
2018-11-26T12:22:49.621Z,97.3
2018-11-26T12:23:58.886Z,96.6
2018-11-26T12:25:08.134Z,96.6
2018-11-26T12:26:17.415Z,96.6
2018-11-26T12:27:26.649Z,96.6
2018-11-26T12:28:35.894Z,95.8
2018-11-26T12:29:45.169Z,96.4
2018-11-26T12:30:54.427Z,95.8
2018-11-26T12:32:03.636Z,95.1
2018-11-26T12:33:12.912Z,94.7
2018-11-26T12:34:22.153Z,94.3
2018-11-26T12:35:31.430Z,93.9
2018-11-26T12:36:40.702Z,93.5
2018-11-26T12:37:49.927Z,93.1
2018-11-26T12:38:59.236Z,93.1
2018-11-26T12:40:08.431Z,93.2
2018-11-26T12:41:17.702Z,93.3
2018-11-26T12:42:26.966Z,93
2018-11-26T12:43:36.191Z,93
2018-11-26T12:44:45.461Z,92.8
2018-11-26T12:45:54.716Z,92.8
2018-11-26T12:47:03.952Z,92.7
2018-11-26T12:48:13.247Z,92.9
2018-11-26T12:49:22.468Z,93.1
2018-11-26T12:50:31.722Z,92.9
2018-11-26T12:51:40.990Z,92.9
2018-11-26T12:52:50.218Z,93
2018-11-26T12:53:59.513Z,93.2
2018-11-26T12:55:08.766Z,94.5
2018-11-26T12:56:17.995Z,95.4
2018-11-26T12:57:27.355Z,95.8
2018-11-26T12:58:36.526Z,95.8
2018-11-26T12:59:45.786Z,96
2018-11-26T13:00:55.021Z,96.4
2018-11-26T13:02:04.285Z,96.4
2018-11-26T13:03:13.517Z,96.6
2018-11-26T13:04:22.841Z,95.8
2018-11-26T13:05:32.085Z,94.5
2018-11-26T13:06:41.403Z,94.4
2018-11-26T13:07:50.550Z,94.4
2018-11-26T13:08:59.862Z,93.9
2018-11-26T13:10:09.052Z,94
2018-11-26T13:11:18.321Z,94.1
2018-11-26T13:12:27.593Z,93.7
2018-11-26T13:13:36.841Z,93.7
2018-11-26T13:14:46.398Z,93.7
2018-11-26T13:15:55.421Z,93.8
2018-11-26T13:17:04.602Z,93.7
2018-11-26T13:18:13.859Z,93.7
2018-11-26T13:19:23.139Z,93.6
2018-11-26T13:20:32.653Z,94.4
2018-11-26T13:21:41.811Z,94.5
2018-11-26T13:22:50.867Z,95
2018-11-26T13:24:00.138Z,95.2
2018-11-26T13:25:09.475Z,95.2
2018-11-26T13:26:18.657Z,95.2
2018-11-26T13:27:27.888Z,95.3
2018-11-26T13:28:37.115Z,94.9
2018-11-26T13:29:46.382Z,95.3
2018-11-26T13:30:55.635Z,95.7
2018-11-26T13:32:04.876Z,95.7
2018-11-26T13:33:14.118Z,95.6
2018-11-26T13:34:23.374Z,95.5
2018-11-26T13:35:32.620Z,95
2018-11-26T13:36:41.973Z,95.5
2018-11-26T13:37:51.120Z,95.9
2018-11-26T13:39:00.378Z,96
2018-11-26T13:40:09.704Z,96
2018-11-26T13:41:18.877Z,96.6
2018-11-26T13:42:28.122Z,97.6
2018-11-26T13:43:37.429Z,97.8
2018-11-26T13:44:46.607Z,97.9
2018-11-26T13:45:55.953Z,98.8
2018-11-26T13:47:05.106Z,98.6
2018-11-26T13:48:14.373Z,98.9
2018-11-26T13:49:23.593Z,99
2018-11-26T13:50:32.864Z,99
2018-11-26T13:51:42.565Z,98.7
2018-11-26T13:52:51.356Z,98.3
2018-11-26T13:54:00.602Z,98.7
2018-11-26T13:55:09.884Z,98.4
2018-11-26T13:56:19.104Z,98.7
2018-11-26T13:57:28.342Z,99
2018-11-26T13:58:37.574Z,99
2018-11-26T13:59:46.818Z,98.8
2018-11-26T14:00:56.067Z,98.7
2018-11-26T14:02:05.385Z,98.3
2018-11-26T14:03:14.564Z,98.4
2018-11-26T14:04:23.806Z,98.4
2018-11-26T14:05:33.049Z,98.3
2018-11-26T14:06:42.346Z,98.2
2018-11-26T14:07:51.562Z,98.4
2018-11-26T14:09:00.806Z,97.7
2018-11-26T14:10:10.043Z,97.3
2018-11-26T14:11:19.309Z,97.5
2018-11-26T14:12:28.535Z,96.7
2018-11-26T14:13:37.788Z,96.5
2018-11-26T14:14:51.883Z,96.6
2018-11-26T14:15:56.390Z,96.8
2018-11-26T14:17:05.517Z,96.9
2018-11-26T14:18:14.772Z,97.1
2018-11-26T14:19:24.005Z,97.5
2018-11-26T14:20:33.291Z,97.9
2018-11-26T14:21:42.488Z,98.4
2018-11-26T14:22:51.748Z,98.3
2018-11-26T14:24:00.988Z,98.3
2018-11-26T14:25:10.267Z,98
2018-11-26T14:26:19.548Z,98.7
2018-11-26T14:27:28.700Z,98.2
2018-11-26T14:28:38.012Z,97.8
2018-11-26T14:29:47.187Z,98.2
2018-11-26T14:30:56.440Z,98.3
2018-11-26T14:32:05.682Z,97.8
2018-11-26T14:33:14.920Z,97.8
2018-11-26T14:34:24.204Z,97.9
2018-11-26T14:35:33.455Z,97.6
2018-11-26T14:36:42.682Z,97.5
2018-11-26T14:37:51.895Z,97.5
2018-11-26T14:39:01.185Z,97.3
2018-11-26T14:40:10.373Z,97.1
2018-11-26T14:41:19.635Z,97.2
2018-11-26T14:42:28.896Z,97.1
2018-11-26T14:43:38.133Z,97.4
2018-11-26T14:44:47.363Z,97.7
2018-11-26T14:45:56.610Z,97.6
2018-11-26T14:47:05.862Z,97.5
2018-11-26T14:48:15.110Z,97.7
2018-11-26T14:49:24.334Z,98.1
2018-11-26T14:50:33.572Z,98
2018-11-26T14:51:42.803Z,98.1
2018-11-26T14:52:52.106Z,98.4
2018-11-26T14:54:01.280Z,98.1
2018-11-26T14:55:10.532Z,97.9
2018-11-26T14:56:19.776Z,97.8
2018-11-26T14:57:29.046Z,97.8
2018-11-26T14:58:38.267Z,97.7
2018-11-26T14:59:47.508Z,97.6
2018-11-26T15:00:56.740Z,97.6
2018-11-26T15:02:05.974Z,97.6
2018-11-26T15:03:15.221Z,98
2018-11-26T15:04:24.503Z,98
2018-11-26T15:05:33.722Z,98.3
2018-11-26T15:06:42.937Z,98.1
2018-11-26T15:07:52.236Z,98
2018-11-26T15:09:01.420Z,97.7
2018-11-26T15:10:10.661Z,96.4
2018-11-26T15:11:19.965Z,96.4
2018-11-26T15:12:29.145Z,96.4
2018-11-26T15:13:38.387Z,96.6
2018-11-26T15:14:47.717Z,96.4
2018-11-26T15:15:56.905Z,96.4
2018-11-26T15:17:06.122Z,96.4
2018-11-26T15:18:15.375Z,95.8
2018-11-26T15:19:24.611Z,95.9
2018-11-26T15:20:33.832Z,96.1
2018-11-26T15:21:43.090Z,95.5
2018-11-26T15:22:52.294Z,95.7
2018-11-26T15:24:01.561Z,96.1
2018-11-26T15:25:10.898Z,96.2